createdAt,value
2018-09-29T00:01:19.980Z,80.70
2018-09-29T00:03:48.767Z,81.00
2018-09-29T00:06:17.537Z,81.00
2018-09-29T00:08:46.297Z,80.70
2018-09-29T00:11:15.096Z,80.80
2018-09-29T00:13:43.873Z,81.00
2018-09-29T00:16:14.858Z,81.50
2018-09-29T00:18:44.263Z,81.30
2018-09-29T00:21:13.027Z,81.60
2018-09-29T00:23:41.861Z,81.50
2018-09-29T00:26:10.646Z,81.80
2018-09-29T00:28:39.461Z,81.80
2018-09-29T00:31:08.274Z,81.70
2018-09-29T00:33:38.440Z,81.40
2018-09-29T00:36:07.239Z,81.30
2018-09-29T00:38:36.038Z,81.40
2018-09-29T00:41:04.816Z,81.50
2018-09-29T00:43:33.627Z,82.10
2018-09-29T00:46:02.440Z,81.50
2018-09-29T00:48:31.253Z,81.60
2018-09-29T00:51:00.315Z,81.50
2018-09-29T00:53:29.160Z,81.80
2018-09-29T00:55:57.917Z,81.80
2018-09-29T00:58:26.744Z,82.00
2018-09-29T01:00:55.523Z,82.30
2018-09-29T01:03:24.361Z,82.20
2018-09-29T01:05:53.197Z,81.90
2018-09-29T01:08:22.017Z,81.90
2018-09-29T01:10:51.113Z,81.90
2018-09-29T01:13:19.865Z,82.40
2018-09-29T01:15:48.633Z,82.70
2018-09-29T01:18:17.466Z,83.00
2018-09-29T01:20:46.269Z,82.80
2018-09-29T01:23:15.140Z,83.00
2018-09-29T01:25:43.980Z,82.70
2018-09-29T01:28:12.911Z,82.80
2018-09-29T01:30:41.747Z,82.90
2018-09-29T01:33:10.521Z,83.10
2018-09-29T01:35:39.312Z,82.70
2018-09-29T01:38:08.174Z,82.50
2018-09-29T01:40:37.038Z,81.90
2018-09-29T01:43:05.806Z,81.90
2018-09-29T01:45:34.578Z,82.10
2018-09-29T01:48:03.434Z,82.50
2018-09-29T01:50:32.328Z,82.10
2018-09-29T01:53:01.164Z,83.10
2018-09-29T01:55:29.959Z,82.70
2018-09-29T01:57:58.772Z,82.70
2018-09-29T02:00:27.553Z,82.60
2018-09-29T02:02:56.468Z,82.80
2018-09-29T02:05:25.229Z,82.10
2018-09-29T02:07:54.006Z,82.30
2018-09-29T02:10:23.089Z,82.10
2018-09-29T02:12:51.808Z,82.10
2018-09-29T02:15:20.594Z,82.50
2018-09-29T02:17:49.365Z,82.10
2018-09-29T02:20:18.195Z,82.50
2018-09-29T02:22:46.946Z,82.30
2018-09-29T02:25:15.721Z,82.50
2018-09-29T02:27:44.531Z,82.10
2018-09-29T02:30:13.270Z,82.10
2018-09-29T02:32:42.117Z,82.60
2018-09-29T02:35:10.878Z,83.00
2018-09-29T02:37:39.644Z,82.60
2018-09-29T02:40:08.522Z,82.40
2018-09-29T02:42:37.317Z,82.20
2018-09-29T02:45:06.664Z,82.30
2018-09-29T02:47:35.451Z,82.60
2018-09-29T02:50:04.245Z,83.00
2018-09-29T02:52:33.120Z,82.60
2018-09-29T02:55:02.414Z,82.60
2018-09-29T02:57:31.224Z,82.50
2018-09-29T03:00:00.011Z,81.70
2018-09-29T03:02:28.793Z,82.00
2018-09-29T03:04:57.575Z,82.10
2018-09-29T03:07:26.452Z,82.60
2018-09-29T03:09:55.202Z,83.60
2018-09-29T03:12:23.985Z,83.00
2018-09-29T03:14:52.842Z,82.70
2018-09-29T03:17:21.632Z,82.90
2018-09-29T03:19:50.421Z,83.40
2018-09-29T03:22:19.196Z,83.40
2018-09-29T03:24:48.369Z,83.20
2018-09-29T03:27:17.198Z,83.00
2018-09-29T03:29:46.129Z,82.90
2018-09-29T03:32:14.924Z,83.00
2018-09-29T03:34:43.807Z,83.40
2018-09-29T03:37:12.618Z,83.60
2018-09-29T03:39:41.402Z,83.50
2018-09-29T03:42:10.222Z,83.60
2018-09-29T03:44:39.010Z,83.50
2018-09-29T03:47:07.878Z,84.40
2018-09-29T03:49:36.649Z,84.20
2018-09-29T03:52:05.494Z,84.00
2018-09-29T03:54:34.283Z,83.40
2018-09-29T03:57:03.089Z,83.50
2018-09-29T03:59:31.870Z,83.10
2018-09-29T04:02:00.662Z,83.60
2018-09-29T04:04:29.589Z,83.90
2018-09-29T04:06:58.384Z,83.50
2018-09-29T04:09:27.273Z,83.30
2018-09-29T04:11:56.169Z,83.40
2018-09-29T04:14:24.970Z,83.70
2018-09-29T04:16:53.745Z,83.90
2018-09-29T04:19:22.582Z,84.90
2018-09-29T04:21:51.349Z,83.40
2018-09-29T04:24:20.192Z,83.50
2018-09-29T04:26:49.029Z,83.70
2018-09-29T04:29:18.474Z,83.70
2018-09-29T04:31:47.300Z,83.40
2018-09-29T04:34:16.049Z,83.10
2018-09-29T04:36:45.105Z,83.30
2018-09-29T04:39:14.857Z,83.60
2018-09-29T04:41:43.682Z,83.20
2018-09-29T04:44:12.856Z,84.00
2018-09-29T04:46:42.379Z,83.60
2018-09-29T04:49:11.281Z,82.80
2018-09-29T04:51:40.074Z,82.90
2018-09-29T04:54:09.005Z,83.40
2018-09-29T04:56:37.767Z,83.30
2018-09-29T04:59:06.545Z,82.90
2018-09-29T05:01:35.567Z,83.20
2018-09-29T05:04:04.324Z,83.70
2018-09-29T05:06:33.195Z,84.00
2018-09-29T05:09:01.932Z,83.80
2018-09-29T05:11:30.672Z,83.40
2018-09-29T05:14:10.281Z,84.20
2018-09-29T05:16:46.962Z,83.40
2018-09-29T05:19:17.550Z,83.40
2018-09-29T05:21:49.682Z,83.50
2018-09-29T05:24:36.634Z,83.50
2018-09-29T05:27:18.085Z,83.80
2018-09-29T05:29:55.813Z,83.20
2018-09-29T05:32:42.413Z,83.40
2018-09-29T05:35:47.407Z,82.80
2018-09-29T05:38:21.711Z,83.80
2018-09-29T05:40:52.025Z,83.70
2018-09-29T05:43:35.854Z,83.70
2018-09-29T05:46:16.423Z,83.40
2018-09-29T05:48:47.661Z,84.00
2018-09-29T05:51:19.703Z,83.60
2018-09-29T05:53:51.968Z,83.60
2018-09-29T05:56:27.182Z,83.90
2018-09-29T05:59:07.622Z,83.70
2018-09-29T06:01:37.098Z,83.70
2018-09-29T06:04:05.910Z,83.70
2018-09-29T06:06:34.687Z,83.40
2018-09-29T06:09:05.171Z,83.80
2018-09-29T06:11:34.373Z,84.00
2018-09-29T06:14:03.267Z,84.50
2018-09-29T06:16:32.075Z,85.60
2018-09-29T06:19:00.849Z,84.30
2018-09-29T06:21:29.569Z,83.00
2018-09-29T06:23:58.378Z,82.50
2018-09-29T06:26:27.188Z,82.60
2018-09-29T06:28:55.973Z,82.40
2018-09-29T06:31:25.030Z,80.20
2018-09-29T06:33:53.821Z,80.60
2018-09-29T06:36:23.193Z,80.90
2018-09-29T06:38:53.123Z,81.10
2018-09-29T06:41:23.667Z,79.60
2018-09-29T06:43:54.047Z,76.30
2018-09-29T06:46:23.192Z,73.70
2018-09-29T06:48:53.790Z,73.20
2018-09-29T06:51:24.103Z,73.70
2018-09-29T06:53:52.939Z,75.80
2018-09-29T06:56:23.389Z,74.20
2018-09-29T06:58:52.295Z,73.80
2018-09-29T07:01:25.280Z,72.70
2018-09-29T07:03:54.169Z,69.60
2018-09-29T07:06:23.426Z,67.00
2018-09-29T07:08:52.267Z,65.20
2018-09-29T07:11:21.097Z,66.20
2018-09-29T07:13:49.958Z,64.40
2018-09-29T07:16:18.785Z,64.60
2018-09-29T07:18:47.874Z,64.50
2018-09-29T07:21:16.642Z,64.80
2018-09-29T07:23:45.443Z,62.10
2018-09-29T07:26:14.277Z,60.30
2018-09-29T07:28:43.075Z,60.00
2018-09-29T07:31:11.911Z,60.10
2018-09-29T07:33:41.010Z,61.10
2018-09-29T07:36:10.628Z,62.20
2018-09-29T07:38:39.780Z,60.70
2018-09-29T07:41:08.584Z,60.40
2018-09-29T07:43:37.330Z,61.10
2018-09-29T07:46:06.233Z,63.00
2018-09-29T07:48:35.038Z,62.00
2018-09-29T07:51:03.816Z,62.00
2018-09-29T07:53:32.603Z,61.70
2018-09-29T07:56:01.521Z,61.10
2018-09-29T07:58:30.290Z,61.60
2018-09-29T08:01:04.327Z,61.20
2018-09-29T08:03:33.869Z,61.30
2018-09-29T08:06:03.075Z,64.90
2018-09-29T08:08:35.029Z,66.00
2018-09-29T08:11:05.644Z,68.30
2018-09-29T08:13:36.566Z,67.90
2018-09-29T08:16:08.295Z,63.50
2018-09-29T08:18:37.116Z,67.30
2018-09-29T08:21:06.069Z,65.40
2018-09-29T08:23:35.361Z,64.90
2018-09-29T08:26:09.187Z,66.10
2018-09-29T08:28:39.750Z,64.40
2018-09-29T08:31:09.875Z,62.60
2018-09-29T08:33:40.585Z,61.50
2018-09-29T08:36:10.707Z,60.80
2018-09-29T08:38:40.863Z,61.00
2018-09-29T08:41:09.962Z,60.30
2018-09-29T08:43:39.232Z,60.30
2018-09-29T08:46:08.286Z,57.50
2018-09-29T08:48:38.752Z,56.10
2018-09-29T08:51:08.934Z,57.00
2018-09-29T08:54:11.427Z,54.80
2018-09-29T08:56:43.761Z,53.00
2018-09-29T08:59:17.545Z,52.80
2018-09-29T09:01:48.940Z,54.00
2018-09-29T09:04:18.253Z,53.80
2018-09-29T09:06:47.419Z,52.50
2018-09-29T09:09:16.191Z,50.20
2018-09-29T09:11:45.254Z,51.00
2018-09-29T09:14:14.104Z,51.60
2018-09-29T09:16:42.937Z,49.60
2018-09-29T09:19:11.989Z,51.50
2018-09-29T09:21:40.811Z,50.50
2018-09-29T09:24:09.734Z,50.80
2018-09-29T09:26:38.546Z,48.50
2018-09-29T09:29:07.375Z,48.90
2018-09-29T09:31:36.325Z,49.00
2018-09-29T09:34:05.104Z,47.90
2018-09-29T09:36:33.906Z,46.70
2018-09-29T09:39:02.776Z,48.80
2018-09-29T09:41:31.545Z,51.10
2018-09-29T09:44:00.325Z,47.00
2018-09-29T09:46:29.128Z,47.80
2018-09-29T09:48:58.135Z,46.60
2018-09-29T09:51:26.944Z,47.50
2018-09-29T09:53:55.736Z,46.20
2018-09-29T09:56:24.612Z,47.10
2018-09-29T09:58:53.480Z,47.60
2018-09-29T10:01:27.864Z,46.20
2018-09-29T10:03:56.640Z,48.40
2018-09-29T10:06:25.555Z,45.60
2018-09-29T10:08:54.339Z,47.90
2018-09-29T10:11:23.149Z,45.40
2018-09-29T10:13:51.948Z,45.30
2018-09-29T10:16:20.773Z,48.00
2018-09-29T10:18:49.628Z,48.00
2018-09-29T10:21:18.421Z,47.40
2018-09-29T10:23:47.321Z,48.70
2018-09-29T10:26:16.117Z,45.30
2018-09-29T10:28:44.893Z,46.90
2018-09-29T10:31:13.866Z,45.30
2018-09-29T10:33:42.817Z,47.90
2018-09-29T10:36:11.652Z,46.70
2018-09-29T10:38:40.428Z,44.60
2018-09-29T10:41:09.989Z,46.60
2018-09-29T10:43:38.873Z,47.20
2018-09-29T10:46:07.706Z,47.40
2018-09-29T10:48:36.538Z,45.20
2018-09-29T10:51:05.518Z,47.60
2018-09-29T10:53:34.372Z,44.50
2018-09-29T10:56:03.220Z,46.60
2018-09-29T10:58:32.024Z,46.80
2018-09-29T11:01:00.931Z,47.00
2018-09-29T11:03:29.764Z,46.10
2018-09-29T11:05:58.696Z,45.70
2018-09-29T11:08:27.530Z,44.80
2018-09-29T11:10:56.294Z,47.60
2018-09-29T11:13:25.100Z,46.40
2018-09-29T11:15:53.831Z,44.50
2018-09-29T11:18:23.453Z,43.30
2018-09-29T11:20:53.882Z,43.80
2018-09-29T11:23:30.635Z,40.40
2018-09-29T11:25:59.891Z,38.90
2018-09-29T11:28:31.637Z,41.80
2018-09-29T11:31:00.416Z,40.90
2018-09-29T11:33:31.741Z,42.30
2018-09-29T11:36:02.378Z,39.60
2018-09-29T11:38:33.432Z,43.00
2018-09-29T11:41:03.637Z,41.10
2018-09-29T11:43:32.764Z,43.40
2018-09-29T11:46:01.576Z,42.70
2018-09-29T11:48:30.354Z,41.20
2018-09-29T11:50:59.177Z,40.60
2018-09-29T11:53:27.999Z,37.90
2018-09-29T11:55:56.834Z,39.20
2018-09-29T11:58:25.683Z,38.50
2018-09-29T12:00:54.517Z,37.50
2018-09-29T12:03:23.369Z,37.80
2018-09-29T12:05:52.187Z,37.90
2018-09-29T12:08:21.048Z,37.70
2018-09-29T12:10:49.876Z,39.80
2018-09-29T12:13:18.657Z,40.20
2018-09-29T12:15:47.453Z,40.00
2018-09-29T12:18:16.422Z,36.00
2018-09-29T12:20:45.389Z,39.30
2018-09-29T12:23:14.253Z,39.10
2018-09-29T12:25:43.069Z,39.60
2018-09-29T12:28:11.864Z,37.60
2018-09-29T12:30:40.641Z,38.80
2018-09-29T12:33:09.792Z,39.80
2018-09-29T12:35:38.609Z,40.80
2018-09-29T12:38:07.389Z,38.60
2018-09-29T12:40:36.135Z,38.30
2018-09-29T12:43:04.964Z,41.20
2018-09-29T12:45:33.805Z,41.20
2018-09-29T12:48:02.624Z,41.30
2018-09-29T12:50:31.471Z,40.00
2018-09-29T12:53:00.294Z,39.70
2018-09-29T12:55:29.047Z,40.40
2018-09-29T12:57:57.878Z,41.30
2018-09-29T13:00:26.626Z,42.20
2018-09-29T13:02:56.018Z,42.60
2018-09-29T13:05:25.818Z,41.60
2018-09-29T13:07:54.830Z,42.20
2018-09-29T13:10:23.686Z,43.00
2018-09-29T13:12:52.457Z,42.00
2018-09-29T13:15:21.241Z,44.70
2018-09-29T13:17:50.083Z,46.20
2018-09-29T13:20:18.980Z,43.00
2018-09-29T13:22:47.742Z,42.10
2018-09-29T13:25:16.545Z,42.60
2018-09-29T13:27:45.347Z,42.70
2018-09-29T13:30:14.190Z,41.40
2018-09-29T13:32:43.079Z,42.90
2018-09-29T13:35:11.906Z,42.60
2018-09-29T13:37:40.702Z,40.70
2018-09-29T13:40:09.610Z,40.10
2018-09-29T13:42:38.430Z,42.90
2018-09-29T13:45:07.273Z,38.50
2018-09-29T13:47:36.109Z,39.00
2018-09-29T13:50:05.483Z,41.20
2018-09-29T13:52:34.333Z,40.80
2018-09-29T13:55:03.109Z,41.80
2018-09-29T13:57:34.334Z,42.20
2018-09-29T14:00:03.291Z,42.60
2018-09-29T14:02:32.112Z,42.20
2018-09-29T14:05:00.913Z,42.80
2018-09-29T14:07:29.697Z,43.30
2018-09-29T14:09:58.565Z,44.30
2018-09-29T14:12:27.325Z,42.10
2018-09-29T14:14:56.297Z,42.10
2018-09-29T14:17:25.918Z,42.00
2018-09-29T14:19:54.702Z,40.20
2018-09-29T14:22:23.737Z,40.20
2018-09-29T14:24:52.522Z,43.20
2018-09-29T14:27:21.287Z,44.20
2018-09-29T14:29:50.189Z,43.30
2018-09-29T14:32:18.989Z,43.10
2018-09-29T14:34:47.918Z,42.90
2018-09-29T14:37:16.713Z,42.70
2018-09-29T14:39:45.587Z,43.00
2018-09-29T14:42:14.489Z,42.40
2018-09-29T14:44:43.261Z,42.30
2018-09-29T14:47:12.119Z,43.00
2018-09-29T14:49:41.359Z,42.40
2018-09-29T14:52:10.218Z,41.70
2018-09-29T14:54:38.999Z,40.00
2018-09-29T14:57:07.837Z,42.30
2018-09-29T14:59:36.660Z,39.20
2018-09-29T15:02:05.561Z,39.70
2018-09-29T15:04:34.486Z,39.90
2018-09-29T15:07:03.379Z,41.90
2018-09-29T15:09:32.170Z,44.30
2018-09-29T15:12:01.027Z,44.40
2018-09-29T15:14:29.878Z,41.20
2018-09-29T15:16:58.678Z,43.70
2018-09-29T15:19:27.476Z,43.80
2018-09-29T15:21:56.363Z,44.50
2018-09-29T15:24:25.193Z,41.10
2018-09-29T15:26:54.007Z,40.80
2018-09-29T15:29:22.819Z,43.90
2018-09-29T15:31:51.615Z,45.00
2018-09-29T15:34:20.376Z,44.60
2018-09-29T15:36:49.497Z,43.70
2018-09-29T15:39:18.338Z,44.10
2018-09-29T15:41:47.120Z,43.10
2018-09-29T15:44:15.995Z,45.10
2018-09-29T15:46:44.823Z,44.00
2018-09-29T15:49:15.138Z,42.20
2018-09-29T15:51:45.323Z,40.50
2018-09-29T15:54:14.106Z,41.30
2018-09-29T15:56:42.953Z,42.10
2018-09-29T15:59:11.882Z,44.30
2018-09-29T16:01:42.259Z,44.50
2018-09-29T16:04:12.034Z,45.00
2018-09-29T16:06:40.872Z,45.10
2018-09-29T16:09:11.409Z,46.50
2018-09-29T16:11:42.160Z,46.80
2018-09-29T16:14:13.676Z,45.90
2018-09-29T16:16:42.708Z,46.70
2018-09-29T16:19:18.158Z,46.70
2018-09-29T16:21:48.706Z,46.20
2018-09-29T16:24:20.530Z,48.90
2018-09-29T16:26:53.089Z,47.80
2018-09-29T16:29:25.884Z,47.00
2018-09-29T16:31:57.392Z,46.50
2018-09-29T16:34:26.179Z,48.30
2018-09-29T16:36:54.987Z,50.90
2018-09-29T16:39:32.224Z,53.50
2018-09-29T16:42:03.267Z,53.30
2018-09-29T16:44:33.596Z,53.60
2018-09-29T16:47:02.473Z,55.10
2018-09-29T16:49:31.242Z,54.50
2018-09-29T16:52:00.101Z,55.60
2018-09-29T16:54:28.873Z,56.10
2018-09-29T16:56:57.649Z,56.10
2018-09-29T16:59:26.844Z,56.50
2018-09-29T17:01:56.239Z,56.00
2018-09-29T17:04:25.230Z,57.10
2018-09-29T17:06:54.171Z,57.70
2018-09-29T17:09:22.977Z,56.80
2018-09-29T17:11:51.776Z,58.70
2018-09-29T17:14:20.890Z,58.70
2018-09-29T17:16:49.655Z,59.50
2018-09-29T17:19:18.454Z,59.50
2018-09-29T17:21:47.377Z,59.40
2018-09-29T17:24:16.194Z,59.10
2018-09-29T17:26:45.450Z,59.40
2018-09-29T17:29:14.279Z,60.50
2018-09-29T17:31:45.063Z,61.20
2018-09-29T17:34:15.830Z,62.60
2018-09-29T17:36:47.546Z,63.20
2018-09-29T17:39:17.980Z,63.60
2018-09-29T17:41:47.066Z,63.70
2018-09-29T17:44:15.884Z,64.20
2018-09-29T17:46:44.685Z,65.00
2018-09-29T17:49:13.496Z,65.10
2018-09-29T17:51:44.375Z,64.90
2018-09-29T17:54:14.335Z,65.70
2018-09-29T17:56:43.286Z,66.20
2018-09-29T17:59:13.199Z,66.30
2018-09-29T18:01:42.019Z,66.30
2018-09-29T18:04:11.035Z,66.20
2018-09-29T18:06:41.472Z,67.00
2018-09-29T18:09:11.877Z,66.60
2018-09-29T18:11:46.500Z,66.60
2018-09-29T18:14:17.053Z,66.70
2018-09-29T18:16:45.952Z,67.70
2018-09-29T18:19:14.896Z,68.10
2018-09-29T18:21:43.707Z,67.60
2018-09-29T18:24:12.591Z,67.90
2018-09-29T18:26:47.870Z,67.90
2018-09-29T18:29:24.524Z,68.60
2018-09-29T18:31:53.309Z,69.50
2018-09-29T18:34:23.081Z,69.40
2018-09-29T18:36:52.007Z,69.20
2018-09-29T18:39:20.822Z,68.90
2018-09-29T18:41:49.662Z,69.30
2018-09-29T18:44:18.830Z,69.40
2018-09-29T18:46:47.649Z,69.30
2018-09-29T18:49:16.988Z,70.10
2018-09-29T18:51:45.973Z,70.10
2018-09-29T18:54:14.717Z,70.10
2018-09-29T18:56:43.527Z,70.70
2018-09-29T18:59:12.392Z,71.20
2018-09-29T19:01:41.196Z,71.20
2018-09-29T19:04:10.111Z,71.20
2018-09-29T19:06:39.102Z,71.00
2018-09-29T19:09:10.063Z,71.50
2018-09-29T19:11:39.710Z,72.80
2018-09-29T19:14:09.809Z,73.50
2018-09-29T19:16:39.595Z,73.90
2018-09-29T19:19:09.514Z,74.00
2018-09-29T19:21:38.345Z,73.60
2018-09-29T19:24:07.340Z,73.60
2018-09-29T19:26:36.456Z,73.60
2018-09-29T19:29:05.317Z,73.60
2018-09-29T19:31:34.427Z,73.60
2018-09-29T19:34:03.175Z,73.60
2018-09-29T19:36:32.151Z,73.50
2018-09-29T19:39:01.018Z,73.80
2018-09-29T19:41:30.110Z,74.20
2018-09-29T19:43:59.013Z,74.20
2018-09-29T19:46:27.784Z,75.50
2018-09-29T19:48:57.730Z,75.70
2018-09-29T19:51:26.660Z,75.60
2018-09-29T19:53:56.336Z,75.70
2018-09-29T19:56:25.684Z,75.80
2018-09-29T19:58:54.506Z,76.20
2018-09-29T20:01:24.429Z,77.10
2018-09-29T20:03:55.453Z,76.80
2018-09-29T20:06:24.315Z,77.60
2018-09-29T20:08:54.307Z,77.50
2018-09-29T20:11:23.931Z,76.70
2018-09-29T20:13:55.672Z,77.20
2018-09-29T20:16:29.225Z,76.70
2018-09-29T20:18:58.148Z,76.80
2018-09-29T20:21:26.949Z,77.20
2018-09-29T20:23:56.757Z,78.00
2018-09-29T20:26:25.787Z,78.80
2018-09-29T20:28:55.634Z,77.70
2018-09-29T20:31:24.781Z,77.70
2018-09-29T20:33:55.289Z,77.80
2018-09-29T20:36:24.749Z,77.60
2018-09-29T20:38:55.339Z,77.60
2018-09-29T20:41:24.754Z,78.30
2018-09-29T20:43:54.785Z,78.50
2018-09-29T20:46:23.741Z,78.30
2018-09-29T20:48:53.346Z,78.00
2018-09-29T20:51:24.971Z,77.60
2018-09-29T20:53:53.987Z,78.00
2018-09-29T20:56:24.709Z,78.00
2018-09-29T20:58:53.720Z,78.60
2018-09-29T21:01:22.656Z,78.50
2018-09-29T21:03:53.975Z,78.80
2018-09-29T21:06:22.901Z,78.50
2018-09-29T21:08:53.837Z,78.80
2018-09-29T21:11:22.786Z,78.80
2018-09-29T21:13:52.894Z,78.70
2018-09-29T21:16:22.028Z,78.60
2018-09-29T21:18:50.966Z,79.00
2018-09-29T21:21:20.524Z,79.50
2018-09-29T21:23:49.726Z,79.30
2018-09-29T21:26:18.835Z,79.00
2018-09-29T21:28:52.292Z,78.70
2018-09-29T21:31:21.449Z,79.00
2018-09-29T21:33:50.226Z,79.20
2018-09-29T21:36:19.079Z,79.40
2018-09-29T21:38:47.935Z,80.00
2018-09-29T21:41:16.709Z,79.60
2018-09-29T21:43:45.558Z,79.20
2018-09-29T21:46:15.178Z,79.80
2018-09-29T21:48:43.952Z,79.60
2018-09-29T21:51:13.643Z,80.20
2018-09-29T21:53:42.414Z,80.80
2018-09-29T21:56:11.404Z,80.70
2018-09-29T21:58:40.224Z,81.10
2018-09-29T22:01:14.951Z,80.70
2018-09-29T22:03:43.842Z,80.20
2018-09-29T22:06:12.686Z,80.60
2018-09-29T22:08:41.458Z,80.70
2018-09-29T22:11:10.411Z,80.60
2018-09-29T22:13:39.202Z,80.60
2018-09-29T22:16:08.168Z,80.60
2018-09-29T22:18:37.026Z,80.60
2018-09-29T22:21:06.364Z,80.60
2018-09-29T22:23:35.117Z,80.70
2018-09-29T22:26:03.953Z,80.60
2018-09-29T22:28:32.744Z,80.60
2018-09-29T22:31:01.529Z,80.80
2018-09-29T22:33:30.508Z,80.60
2018-09-29T22:35:59.328Z,81.40
2018-09-29T22:38:28.197Z,81.30
2018-09-29T22:40:59.070Z,81.10
2018-09-29T22:43:30.573Z,80.70
2018-09-29T22:46:01.952Z,80.70
2018-09-29T22:48:30.757Z,80.80
2018-09-29T22:51:00.439Z,80.30
2018-09-29T22:53:31.277Z,80.40
2018-09-29T22:56:02.568Z,80.60
2018-09-29T22:58:31.347Z,81.40
2018-09-29T23:01:00.104Z,80.90
2018-09-29T23:03:28.884Z,81.20
2018-09-29T23:05:57.711Z,80.80
2018-09-29T23:08:26.476Z,80.20
2018-09-29T23:10:55.292Z,80.50
2018-09-29T23:13:24.241Z,80.20
2018-09-29T23:15:53.014Z,80.20
2018-09-29T23:18:21.832Z,80.00
2018-09-29T23:20:50.677Z,80.90
2018-09-29T23:23:19.454Z,81.40
2018-09-29T23:25:48.371Z,81.80
2018-09-29T23:28:17.205Z,81.50
2018-09-29T23:30:45.995Z,82.00
2018-09-29T23:33:14.830Z,81.80
2018-09-29T23:35:43.623Z,82.00
2018-09-29T23:38:12.438Z,80.90
2018-09-29T23:40:41.418Z,81.40
2018-09-29T23:43:10.238Z,81.30
2018-09-29T23:45:39.050Z,81.40
2018-09-29T23:48:07.863Z,81.40
2018-09-29T23:50:36.665Z,81.40
2018-09-29T23:53:05.488Z,81.20
2018-09-29T23:55:34.268Z,80.80
2018-09-29T23:58:03.094Z,81.50
